• Join FlightAware (Why Join?)
  • Login
  • US Flag 
06:33AM EDT


 

Airport Tracker/Info


-or-


 

Live Flight TrackerFlight Track Log ✈ EJA982 ✈ 02-Jun-2013 ✈ KCMH - KSFO

Flight Track Log - Related Links

Times and Time Zones

All times are in EDT time to prevent confusion due to time zone crossing. See the EJA982 flight status page for this flight to view local times or setup timezone preferences in your user account.

Time Position Orientation Groundspeed Altitude Reporting Facility
EDT Latitude Longitude Course Direction KTS MPH feet Rate Location/Type
03:09PM 40.0036 -82.9239 270° West 177 204 1,700  Level Indianapolis Center
03:10PM 40.0072 -82.9886 274° West 221 254 3,900 1,800 Climbing Indianapolis Center
03:11PM 40.0086 -83.0794 271° West 239 275 5,200 2,520 Climbing Indianapolis Center
03:12PM 40.0125 -83.1742 273° West 257 296 9,200 2,580 Climbing Indianapolis Center
03:13PM 40.0181 -83.2875 274° West 312 359 10,600 2,040 Climbing Indianapolis Center
03:14PM 40.0161 -83.4311 269° West 338 389 13,500 2,280 Climbing Indianapolis Center
03:15PM 40.0000 -83.8452 270° West  Level FlightAware Approximate
03:15PM 40.0086 -83.5547 266° West 343 395 15,300  Level Indianapolis Center
03:16PM 40.0008 -83.6822 265° West 354 407 16,800 1,380 Climbing Indianapolis Center
03:17PM 39.9933 -83.8136 266° West 362 417 18,200 1,260 Climbing Indianapolis Center
03:18PM 39.9850 -83.9494 265° West 372 428 19,500 1,200 Climbing Indianapolis Center
03:19PM 39.9772 -84.0847 266° West 372 428 20,800 1,200 Climbing Indianapolis Center
03:20PM 39.9686 -84.2208 265° West 376 433 22,000 1,140 Climbing Indianapolis Center
03:21PM 39.9575 -84.3847 265° West 385 443 23,200 1,020 Climbing Indianapolis Center
03:22PM 39.9486 -84.5272 265° West 392 451 24,200 1,020 Climbing Indianapolis Center
03:23PM 39.9386 -84.6728 265° West 399 459 25,300 1,080 Climbing Indianapolis Center
03:24PM 39.9281 -84.8181 265° West 400 460 26,500 1,020 Climbing Indianapolis Center
03:25PM 39.9183 -84.9658 265° West 405 466 27,500 960 Climbing Indianapolis Center
03:26PM 39.9083 -85.1147 265° West 410 472 28,500 1,020 Climbing Indianapolis Center
03:27PM 39.8975 -85.2672 265° West 417 480 29,600 960 Climbing Indianapolis Center
03:28PM 39.8867 -85.4208 265° West 421 484 30,500 1,020 Climbing Indianapolis Center
03:29PM 39.8747 -85.5753 264° West 425 489 31,800 1,380 Climbing Indianapolis Center
03:30PM 39.8192 -85.7394 246° West 422 486 33,400 1,020 Climbing Indianapolis Center
03:31PM 39.8011 -85.8903 261° West 425 489 34,000 1,380 Climbing Indianapolis Center
03:32PM 39.8050 -86.0314 272° West 439 505 36,300 1,920 Climbing Indianapolis Center
03:34PM 39.8094 -86.2067 272° West 412 474 38,000 780 Climbing Indianapolis Center
03:35PM 39.8125 -86.3564 272° West 412 474 38,000  Level Indianapolis Center
03:36PM 39.8158 -86.5150 272° West 429 494 38,000  Level Indianapolis Center
03:37PM 39.8197 -86.6792 272° West 448 516 38,100 480 Climbing Indianapolis Center
03:38PM 39.8228 -86.8417 271° West 450 518 39,100 900 Climbing Indianapolis Center
03:39PM 39.8258 -86.9992 271° West 440 506 40,000 420 Climbing Indianapolis Center
03:40PM 39.8286 -87.1603 271° West 443 510 40,000  Level Indianapolis Center
03:41PM 39.8306 -87.3242 271° West 450 518 40,000  Level Indianapolis Center
03:42PM 39.8331 -87.5264 271° West 462 532 40,000  Level Indianapolis Center
03:43PM 39.8358 -87.6944 271° West 464 534 40,000  Level Indianapolis Center
03:44PM 39.8369 -87.8628 271° West 465 535 40,000  Level Indianapolis Center
03:45PM 39.8383 -88.0297 271° West 465 535 40,000  Level Indianapolis Center
03:46PM 39.8375 -88.1350 269° West 464 534 40,000  Level Kansas City Center
03:47PM 39.8394 -88.3236 271° West 464 534 40,000  Level Kansas City Center
03:48PM 39.8397 -88.4919 270° West 466 536 40,000  Level Kansas City Center
03:49PM 39.8411 -88.6594 271° West 464 534 40,000  Level Kansas City Center
03:50PM 39.8411 -88.8294 270° West 467 537 40,000  Level Kansas City Center
03:51PM 39.8408 -88.9981 270° West 466 536 40,000  Level Kansas City Center
03:52PM 39.8411 -89.1661 270° West 465 535 40,000  Level Kansas City Center
03:53PM 39.8400 -89.3672 270° West 463 533 40,000  Level Kansas City Center
03:54PM 39.8389 -89.5350 270° West 463 533 40,000  Level Kansas City Center
03:55PM 39.8378 -89.7003 270° West 460 529 40,000  Level Kansas City Center
03:56PM 39.8217 -89.8639 263° West 455 524 40,000  Level Kansas City Center
03:57PM 39.8078 -90.0289 264° West 457 526 40,000  Level Kansas City Center
03:58PM 39.7933 -90.1953 264° West 459 528 40,000  Level Kansas City Center
03:59PM 39.7778 -90.3606 263° West 461 531 40,000  Level Kansas City Center
04:00PM 39.7625 -90.5281 263° West 462 532 40,000  Level Kansas City Center
04:01PM 39.7442 -90.7175 263° West 466 536 40,000  Level Kansas City Center
04:02PM 39.7286 -90.8819 263° West 464 534 40,000  Level Kansas City Center
04:03PM 39.7114 -91.0478 262° West 466 536 40,000  Level Kansas City Center
04:04PM 39.6919 -91.2478 263° West 467 537 40,000  Level Kansas City Center
04:05PM 39.6772 -91.3906 262° West 468 539 40,000  Level Kansas City Center
04:06PM 39.6575 -91.5894 263° West 467 537 40,000  Level Kansas City Center
04:07PM 39.6400 -91.7578 262° West 470 541 40,000  Level Kansas City Center
04:08PM 39.6222 -91.9244 262° West 469 540 40,000  Level Kansas City Center
04:09PM 39.6044 -92.0919 262° West 470 541 40,000  Level Kansas City Center
04:10PM 39.5856 -92.2603 262° West 473 544 40,000  Level Kansas City Center
04:11PM 39.5667 -92.4281 262° West 472 543 40,000  Level Kansas City Center
04:12PM 39.5439 -92.6267 262° West 469 540 40,000  Level Kansas City Center
04:14PM 39.5226 -92.8111 262° West  Level FlightAware Approximate
04:14PM 39.5061 -92.9567 262° West 465 535 40,000  Level Kansas City Center
04:15PM 39.4875 -93.1219 262° West 465 535 40,000  Level Kansas City Center
04:17PM 39.4672 -93.2853 261° West 464 534 40,000  Level Kansas City Center
04:18PM 39.4436 -93.4819 261° West 464 534 40,000  Level Kansas City Center
04:19PM 39.4239 -93.6458 261° West 464 534 40,000  Level Kansas City Center
04:20PM 39.4028 -93.8233 261° West 465 535 40,000  Level Kansas City Center
04:21PM 39.3942 -93.9819 266° West 461 531 40,000  Level Kansas City Center
04:22PM 39.4061 -94.1161 277° West 469 540 40,000  Level Kansas City Center
04:23PM 39.4214 -94.3281 275° West 466 536 40,000  Level Kansas City Center
04:24PM 39.4328 -94.4889 275° West 469 540 40,000  Level Kansas City Center
04:25PM 39.4464 -94.6764 275° West 471 542 40,000  Level Kansas City Center
04:26PM 39.4561 -94.8372 275° West 471 542 40,000  Level Kansas City Center
04:27PM 39.4681 -95.0231 275° West 468 539 40,000  Level Kansas City Center
04:28PM 39.4803 -95.2100 275° West 473 544 40,000  Level Kansas City Center
04:29PM 39.4908 -95.3781 275° West 472 543 40,000  Level Kansas City Center
04:30PM 39.5014 -95.5569 274° West 472 543 40,000  Level Kansas City Center
04:31PM 39.5108 -95.7181 274° West 471 542 40,000  Level Kansas City Center
04:32PM 39.5203 -95.9075 274° West 473 544 40,000  Level Kansas City Center
04:33PM 39.5289 -96.0692 274° West 472 543 40,000  Level Kansas City Center
04:34PM 39.5400 -96.2597 274° West 475 547 40,000  Level Kansas City Center
04:35PM 39.5489 -96.4219 274° West 474 545 40,000  Level Kansas City Center
04:36PM 39.5572 -96.5847 274° West 474 545 40,000  Level Kansas City Center
04:37PM 39.5672 -96.7758 274° West 475 547 40,000  Level Kansas City Center
04:38PM 39.5756 -96.9522 274° West 470 541 40,000  Level Kansas City Center
04:39PM 39.5842 -97.1239 274° West 475 547 40,000  Level Kansas City Center
04:40PM 39.5925 -97.2911 274° West 477 549 40,000  Level Kansas City Center
04:41PM 39.6014 -97.4614 274° West 475 547 40,000  Level Kansas City Center
04:42PM 39.6089 -97.6703 273° West 480 552 40,000  Level Kansas City Center
04:43PM 39.6156 -97.8431 273° West 478 550 40,000  Level Kansas City Center
04:44PM 39.6231 -98.0175 273° West 482 555 40,000  Level Kansas City Center
04:45PM 39.6289 -98.1886 273° West 478 550 40,000  Level Kansas City Center
04:46PM 39.6297 -98.2236 272° West 479 551 40,000  Level Minneapolis Center
04:47PM 39.6353 -98.3967 272° West 479 551 40,000  Level Minneapolis Center
04:48PM 39.6422 -98.6039 273° West 478 550 40,000  Level Minneapolis Center
04:49PM 39.6489 -98.7786 273° West 481 554 40,000  Level Minneapolis Center
04:50PM 39.6539 -98.9525 272° West 482 555 40,000  Level Minneapolis Center
04:51PM 39.6606 -99.1578 272° West 473 544 40,000  Level Denver Center
04:52PM 39.6647 -99.3300 272° West 475 547 40,000  Level Denver Center
04:53PM 39.6694 -99.5019 272° West 473 544 40,000  Level Denver Center
04:54PM 39.6742 -99.6747 272° West 476 548 40,000  Level Denver Center
04:55PM 39.6781 -99.8456 272° West 474 545 40,000  Level Denver Center
04:56PM 39.6822 -100.0331 272° West 474 545 40,000  Level Denver Center
04:57PM 39.6853 -100.1956 271° West 470 541 40,000  Level Denver Center
04:58PM 39.6894 -100.3883 272° West 475 547 40,000  Level Denver Center
04:59PM 39.6928 -100.5514 272° West 472 543 40,000  Level Denver Center
05:00PM 39.6953 -100.7417 271° West 471 542 40,000  Level Denver Center
05:01PM 39.6978 -100.9042 271° West 471 542 40,000  Level Denver Center
05:02PM 39.7006 -101.0678 271° West 473 544 40,000  Level Denver Center
05:03PM 39.7019 -101.2553 271° West 468 539 40,000  Level Denver Center
05:04PM 39.7039 -101.4169 271° West 467 537 40,000  Level Denver Center
05:05PM 39.7053 -101.6047 271° West 465 535 40,000  Level Denver Center
05:06PM 39.7064 -101.7653 271° West 464 534 40,000  Level Denver Center
05:07PM 39.7072 -101.9536 270° West 466 536 40,000  Level Denver Center
05:09PM 39.7083 -102.1153 271° West 468 539 40,000  Level Denver Center
05:10PM 39.7086 -102.3039 270° West 468 539 40,000  Level Denver Center
05:11PM 39.7092 -102.4647 270° West 465 535 40,000  Level Denver Center
05:12PM 39.7086 -102.6247 270° West 465 535 40,000  Level Denver Center
05:13PM 39.7081 -102.8056 270° West 464 534 40,000  Level Denver Center
05:14PM 39.7069 -102.9714 270° West 463 533 40,000  Level Denver Center
05:15PM 39.7072 -103.1728 270° West 465 535 40,000  Level Denver Center
05:16PM 39.7053 -103.3392 269° West 462 532 40,000  Level Denver Center
05:17PM 39.7033 -103.5394 269° West 465 535 40,000  Level Denver Center
05:18PM 39.7022 -103.7072 270° West 464 534 40,000  Level Denver Center
05:19PM 39.7006 -103.8736 269° West 459 528 40,000  Level Denver Center
05:20PM 39.6986 -104.0442 269° West 463 533 40,000  Level Denver Center
05:21PM 39.6967 -104.2092 269° West 458 527 40,000  Level Denver Center
05:22PM 39.6936 -104.3764 269° West 472 543 40,000  Level Denver Center
05:23PM 39.6903 -104.5744 269° West 462 532 40,000  Level Denver Center
05:24PM 39.6792 -104.7367 265° West 491 565 40,000  Level Denver Center
05:25PM 39.6622 -104.9033 263° West 473 544 40,000  Level Denver Center
05:26PM 39.6444 -105.0661 262° West 462 532 40,000  Level Denver Center
05:27PM 39.6228 -105.2669 262° West 465 535 40,000  Level Denver Center
05:28PM 39.6064 -105.4289 263° West 454 522 40,000  Level Denver Center
05:29PM 39.5861 -105.6006 261° West 473 544 40,000  Level Denver Center
05:30PM 39.5669 -105.7681 262° West 468 539 40,000  Level Denver Center
05:31PM 39.5525 -105.9294 263° West 452 520 40,000  Level Denver Center
05:32PM 39.5336 -106.0969 262° West 466 536 40,000  Level Denver Center
05:33PM 39.5125 -106.2628 261° West 470 541 40,000  Level Denver Center
05:34PM 39.4900 -106.4636 262° West 470 541 40,000  Level Denver Center
05:36PM 39.4681 -106.6506 261° West 467 537 40,000  Level Denver Center
05:37PM 39.4436 -106.8372 260° West 470 541 40,000  Level Denver Center
05:38PM 39.4200 -106.9950 259° West 468 539 40,000  Level Denver Center
05:39PM 39.3847 -107.1758 256° West 465 535 40,000  Level Denver Center
05:40PM 39.3542 -107.3317 256° West 467 537 40,000  Level Denver Center
05:41PM 39.3186 -107.5150 256° West 469 540 40,000  Level Denver Center
05:42PM 39.2867 -107.6725 255° West 471 542 40,000  Level Denver Center
05:43PM 39.2564 -107.8278 256° West 468 539 40,000  Level Denver Center
05:44PM 39.2192 -108.0106 255° West 467 537 40,000  Level Denver Center
05:45PM 39.1875 -108.1678 255° West 469 540 40,000  Level Denver Center
05:46PM 39.1508 -108.3503 256° West 469 540 40,000  Level Denver Center
05:47PM 39.1181 -108.5089 255° West 475 547 40,000  Level Denver Center
05:48PM 39.0853 -108.6664 255° West 473 544 40,000  Level Denver Center
05:49PM 39.0497 -108.8506 256° West 471 542 40,000  Level Denver Center
05:50PM 39.0264 -109.0114 259° West 474 545 40,000  Level Denver Center
05:51PM 38.9981 -109.1983 259° West 476 548 40,000  Level Denver Center
05:52PM 38.9744 -109.3597 259° West 477 549 40,000  Level Denver Center
05:53PM 38.9508 -109.5200 259° West 477 549 40,000  Level Denver Center
05:54PM 38.9264 -109.6806 259° West 477 549 40,000  Level Salt Lake Center
05:55PM 38.9017 -109.8422 259° West 481 554 40,000  Level Salt Lake Center
05:56PM 38.8714 -110.0322 258° West 484 557 40,000  Level Salt Lake Center
05:57PM 38.8458 -110.1956 259° West 486 559 40,000  Level Salt Lake Center
05:58PM 38.8156 -110.3872 259° West 491 565 40,000  Level Salt Lake Center
05:59PM 38.7894 -110.5517 259° West 492 566 40,000  Level Salt Lake Center
06:00PM 38.7622 -110.7178 258° West 495 570 40,000  Level Salt Lake Center
06:01PM 38.7311 -110.9108 258° West 496 571 40,000  Level Salt Lake Center
06:02PM 38.7011 -111.0883 258° West 496 571 40,000  Level Salt Lake Center
06:03PM 38.6714 -111.2617 258° West 498 573 40,000  Level Salt Lake Center
06:04PM 38.6419 -111.4344 258° West 499 574 40,000  Level Salt Lake Center
06:05PM 38.6133 -111.6081 258° West 501 577 40,000  Level Salt Lake Center
06:06PM 38.5831 -111.7817 257° West 502 578 40,000  Level Salt Lake Center
06:07PM 38.5464 -111.9903 257° West 504 580 40,000  Level Salt Lake Center
06:08PM 38.5222 -112.1669 260° West 506 582 40,000  Level Salt Lake Center
06:10PM 38.5111 -112.3450 265° West 506 582 40,000  Level Salt Lake Center
06:11PM 38.4986 -112.5253 265° West 511 588 40,000  Level Salt Lake Center
06:12PM 38.4850 -112.7036 264° West 509 586 40,000  Level Salt Lake Center
06:13PM 38.4714 -112.8822 264° West 510 587 40,000  Level Salt Lake Center
06:14PM 38.4578 -113.0644 265° West 514 592 40,000  Level Salt Lake Center
06:15PM 38.4406 -113.2794 264° West 513 590 40,000  Level Salt Lake Center
06:16PM 38.4261 -113.4594 264° West 513 590 40,000  Level Salt Lake Center
06:17PM 38.4128 -113.6386 265° West 512 589 40,000  Level Salt Lake Center
06:18PM 38.3981 -113.8175 264° West 511 588 40,000  Level Salt Lake Center
06:19PM 38.3828 -113.9992 264° West 515 593 40,000  Level Salt Lake Center
06:20PM 38.3678 -114.1792 264° West 514 592 40,000  Level Salt Lake Center
06:21PM 38.3478 -114.3983 263° West 522 601 40,000  Level Salt Lake Center
06:22PM 38.3319 -114.5794 264° West 519 597 40,000  Level Salt Lake Center
06:23PM 38.3161 -114.7606 264° West 519 597 40,000  Level Salt Lake Center
06:24PM 38.3000 -114.9411 264° West 517 595 40,000  Level Salt Lake Center
06:25PM 38.2819 -115.1222 263° West 518 596 40,000  Level Salt Lake Center
06:26PM 38.2658 -115.3033 264° West 518 596 40,000  Level Salt Lake Center
06:27PM 38.2464 -115.4983 263° West 518 596 40,000  Level Salt Lake Center
06:28PM 38.2283 -115.6803 263° West 518 596 40,000  Level Salt Lake Center
06:29PM 38.2100 -115.8608 263° West 517 595 40,000  Level Salt Lake Center
06:30PM 38.1914 -116.0417 263° West 517 595 40,000  Level Salt Lake Center
06:31PM 38.1731 -116.2236 263° West 517 595 40,000  Level Salt Lake Center
06:32PM 38.1506 -116.4386 262° West 513 590 40,000  Level Salt Lake Center
06:33PM 38.1439 -116.5111 263° West 516 594 40,000  Level Oakland Center
06:34PM 38.1244 -116.6911 262° West 515 593 40,000  Level Oakland Center
06:34PM 38.1119 -116.7994 262° West 513 590 40,000  Level Salt Lake Center
06:35PM 38.0922 -116.9808 262° West 515 593 40,000  Level Salt Lake Center
06:36PM 38.0844 -117.0531 262° West 515 593 40,000  Level Oakland Center
06:36PM 38.0736 -117.1631 263° West 517 595 40,000  Level Salt Lake Center
06:37PM 38.0644 -117.2461 262° West 522 601 40,000  Level Oakland Center
06:38PM 38.0478 -117.4308 264° West 517 595 40,000  Level Oakland Center
06:39PM 38.0264 -117.6131 262° West 519 597 40,000  Level Oakland Center
06:40PM 38.0044 -117.8306 263° West 518 596 40,000  Level Oakland Center
06:41PM 37.9850 -118.0114 262° West 518 596 40,000  Level Oakland Center
06:42PM 37.9653 -118.1928 262° West 519 597 40,000  Level Oakland Center
06:43PM 37.9447 -118.3728 262° West 519 597 40,000 -60 Level Oakland Center
06:44PM 37.9247 -118.5536 262° West 520 598 39,900 -1,020 Descending Oakland Center
06:45PM 37.9036 -118.7331 262° West 516 594 38,000 -960 Descending Oakland Center
06:46PM 37.8822 -118.9161 262° West 523 602 38,000  Level Oakland Center
06:47PM 37.8614 -119.0989 262° West 525 604 38,000  Level Oakland Center
06:48PM 37.8403 -119.2775 262° West 510 587 38,000  Level Oakland Center
06:49PM 37.8194 -119.4550 262° West 508 585 38,000  Level Oakland Center
06:50PM 37.7978 -119.6292 261° West 504 580 38,000  Level Oakland Center
06:51PM 37.7769 -119.8053 262° West 507 583 38,000 -960 Level Oakland Center
06:52PM 37.7492 -120.0175 261° West 511 588 36,100 -1,440 Descending Oakland Center
06:53PM 37.7269 -120.1956 261° West 515 593 35,100 -1,560 Descending Oakland Center
06:54PM 37.7050 -120.3686 261° West 502 578 33,000 -2,040 Descending Oakland Center
06:55PM 37.6828 -120.5347 260° West 484 557 31,000 -2,520 Descending Oakland Center
06:56PM 37.6642 -120.6819 261° West 436 502 27,900 -2,880 Descending Oakland Center
06:57PM 37.6453 -120.8250 261° West 417 480 25,200 -2,700 Descending Oakland Center
06:58PM 37.6333 -120.9667 264° West 398 458 22,800 -2,520 Descending Northern Cal TRACON
06:59PM 37.6167 -121.0833 260° West 393 452 20,500 -2,340 Descending Northern Cal TRACON
07:00PM 37.6000 -121.2167 261° West 369 425 18,200 -2,400 Descending Northern Cal TRACON
07:01PM 37.5833 -121.3500 261° West 359 413 15,800 -2,280 Descending Northern Cal TRACON
07:02PM 37.5667 -121.4667 260° West 347 399 13,700 -2,040 Descending Northern Cal TRACON
07:04PM 37.5333 -121.6833 259° West 307 353 9,800 -1,800 Descending Northern Cal TRACON
07:05PM 37.5167 -121.7833 258° West 287 330 8,400 -900 Descending Northern Cal TRACON
07:06PM 37.4833 -121.8667 243° Southwest 251 289 8,000 -180 Descending Northern Cal TRACON
07:07PM 37.4833 -121.9333 270° West 211 243 8,100 -480 Climbing Northern Cal TRACON
07:08PM 37.5000 -122.0000 288° West 206 237 7,100 -1,260 Descending Northern Cal TRACON
07:09PM 37.5167 -122.0667 288° West 207 238 5,600 -1,560 Descending Northern Cal TRACON
07:10PM 37.5500 -122.1333 302° West 196 226 4,000 -1,500 Descending Northern Cal TRACON
07:10PM 37.5483 -122.1550 264° West 200 230 3,600 -1,080 Descending Oakland Center
07:11PM 37.5667 -122.2158 291° West 193 222 2,500 -1,080 Descending Oakland Center
07:13PM 37.5847 -122.2758 291° West 188 216 1,500 -960 Descending Oakland Center
07:14PM 37.5986 -122.3292 288° West 175 201 600 -720 Descending Oakland Center
07:15PM 37.6194 -122.3697 303° West 154 177 100 -540 Descending Oakland Center
07:17PM 37.6167 -122.3667 322° Northwest  Level FlightAware Approximate